sensor_id;sensor_type;location;lat;lon;timestamp;pressure;altitude;pressure_sealevel;temperature;humidity
967;BME280;56108;48.730;9.304;2023-10-08T00:00:05;98493.06;;;14.46;52.76
967;BME280;56108;48.730;9.304;2023-10-08T00:02:26;98484.72;;;14.51;52.38
967;BME280;56108;48.730;9.304;2023-10-08T00:04:35;98488.78;;;14.44;52.85
967;BME280;56108;48.730;9.304;2023-10-08T00:06:45;98485.13;;;14.45;52.88
967;BME280;56108;48.730;9.304;2023-10-08T00:11:13;98482.34;;;14.59;51.89
967;BME280;56108;48.730;9.304;2023-10-08T00:13:22;98479.16;;;14.54;52.65
967;BME280;56108;48.730;9.304;2023-10-08T00:15:30;98479.69;;;14.59;52.79
967;BME280;56108;48.730;9.304;2023-10-08T00:17:41;98469.94;;;14.58;53.02
967;BME280;56108;48.730;9.304;2023-10-08T00:19:51;98484.59;;;14.65;51.24
967;BME280;56108;48.730;9.304;2023-10-08T00:22:05;98481.06;;;14.65;52.09
967;BME280;56108;48.730;9.304;2023-10-08T00:24:15;98489.50;;;14.71;51.25
967;BME280;56108;48.730;9.304;2023-10-08T00:26:23;98477.59;;;14.75;51.35
967;BME280;56108;48.730;9.304;2023-10-08T00:28:36;98481.72;;;14.68;51.93
967;BME280;56108;48.730;9.304;2023-10-08T00:30:45;98479.13;;;14.67;52.61
967;BME280;56108;48.730;9.304;2023-10-08T00:32:55;98471.75;;;14.57;53.47
967;BME280;56108;48.730;9.304;2023-10-08T00:35:04;98464.78;;;14.55;54.47
967;BME280;56108;48.730;9.304;2023-10-08T00:37:13;98463.94;;;14.54;54.14
967;BME280;56108;48.730;9.304;2023-10-08T00:39:22;98456.53;;;14.58;53.90
967;BME280;56108;48.730;9.304;2023-10-08T00:41:45;98449.16;;;14.49;55.22
967;BME280;56108;48.730;9.304;2023-10-08T00:43:55;98449.44;;;14.44;54.95
967;BME280;56108;48.730;9.304;2023-10-08T00:46:06;98453.84;;;14.45;54.17
967;BME280;56108;48.730;9.304;2023-10-08T00:48:29;98449.16;;;14.49;53.57
967;BME280;56108;48.730;9.304;2023-10-08T00:50:41;98435.09;;;14.45;54.06
967;BME280;56108;48.730;9.304;2023-10-08T00:52:49;98433.94;;;14.36;55.24
967;BME280;56108;48.730;9.304;2023-10-08T00:55:05;98430.09;;;14.53;55.06
967;BME280;56108;48.730;9.304;2023-10-08T00:57:30;98422.38;;;14.36;56.20
967;BME280;56108;48.730;9.304;2023-10-08T00:59:39;98422.59;;;14.33;56.28
967;BME280;56108;48.730;9.304;2023-10-08T01:01:53;98423.69;;;14.30;56.38
967;BME280;56108;48.730;9.304;2023-10-08T01:04:15;98433.44;;;14.31;54.63
967;BME280;56108;48.730;9.304;2023-10-08T01:06:28;98423.97;;;14.39;56.38
967;BME280;56108;48.730;9.304;2023-10-08T01:08:37;98425.06;;;14.36;56.54
967;BME280;56108;48.730;9.304;2023-10-08T01:10:52;98423.88;;;14.27;56.29
967;BME280;56108;48.730;9.304;2023-10-08T01:13:09;98420.88;;;14.19;56.79
967;BME280;56108;48.730;9.304;2023-10-08T01:15:21;98427.78;;;14.10;56.50
967;BME280;56108;48.730;9.304;2023-10-08T01:17:34;98422.53;;;13.96;57.16
967;BME280;56108;48.730;9.304;2023-10-08T01:19:52;98408.50;;;13.93;58.56
967;BME280;56108;48.730;9.304;2023-10-08T01:22:25;98404.75;;;13.82;58.73
967;BME280;56108;48.730;9.304;2023-10-08T01:24:35;98406.56;;;13.82;58.72
967;BME280;56108;48.730;9.304;2023-10-08T01:26:44;98391.16;;;13.73;59.63
967;BME280;56108;48.730;9.304;2023-10-08T01:28:52;98394.78;;;13.72;59.68
967;BME280;56108;48.730;9.304;2023-10-08T01:31:01;98405.50;;;13.72;59.11
967;BME280;56108;48.730;9.304;2023-10-08T01:33:09;98400.47;;;13.80;57.95
967;BME280;56108;48.730;9.304;2023-10-08T01:35:19;98398.25;;;13.74;59.48
967;BME280;56108;48.730;9.304;2023-10-08T01:37:34;98394.38;;;13.65;59.73
967;BME280;56108;48.730;9.304;2023-10-08T01:39:43;98406.03;;;13.64;58.84
967;BME280;56108;48.730;9.304;2023-10-08T01:41:52;98400.16;;;13.59;59.16
967;BME280;56108;48.730;9.304;2023-10-08T01:44:01;98402.06;;;13.57;59.35
967;BME280;56108;48.730;9.304;2023-10-08T01:46:13;98409.88;;;13.60;58.94
967;BME280;56108;48.730;9.304;2023-10-08T01:48:21;98399.59;;;13.54;59.60
967;BME280;56108;48.730;9.304;2023-10-08T01:50:33;98401.44;;;13.53;59.65
967;BME280;56108;48.730;9.304;2023-10-08T01:52:44;98411.34;;;13.51;58.53
967;BME280;56108;48.730;9.304;2023-10-08T01:54:53;98409.34;;;13.55;58.81
967;BME280;56108;48.730;9.304;2023-10-08T01:57:02;98419.72;;;13.72;57.01
967;BME280;56108;48.730;9.304;2023-10-08T01:59:08;98425.63;;;13.77;56.11
967;BME280;56108;48.730;9.304;2023-10-08T02:01:19;98416.09;;;13.86;57.00
967;BME280;56108;48.730;9.304;2023-10-08T02:03:28;98408.38;;;13.81;56.90
967;BME280;56108;48.730;9.304;2023-10-08T02:05:37;98408.94;;;13.74;58.21
967;BME280;56108;48.730;9.304;2023-10-08T02:07:50;98404.75;;;13.70;57.59
967;BME280;56108;48.730;9.304;2023-10-08T02:10:00;98410.31;;;13.67;57.77
967;BME280;56108;48.730;9.304;2023-10-08T02:12:10;98405.06;;;13.65;57.43
967;BME280;56108;48.730;9.304;2023-10-08T02:14:20;98413.53;;;13.59;57.69
967;BME280;56108;48.730;9.304;2023-10-08T02:16:29;98419.28;;;13.53;57.27
967;BME280;56108;48.730;9.304;2023-10-08T02:18:38;98413.19;;;13.51;57.35
967;BME280;56108;48.730;9.304;2023-10-08T02:20:47;98413.22;;;13.64;56.25
967;BME280;56108;48.730;9.304;2023-10-08T02:22:58;98407.75;;;13.65;58.22
967;BME280;56108;48.730;9.304;2023-10-08T02:25:08;98406.03;;;13.64;59.93
967;BME280;56108;48.730;9.304;2023-10-08T02:27:17;98410.50;;;13.51;58.00
967;BME280;56108;48.730;9.304;2023-10-08T02:29:25;98416.16;;;13.46;57.53
967;BME280;56108;48.730;9.304;2023-10-08T02:31:35;98421.53;;;13.59;56.75
967;BME280;56108;48.730;9.304;2023-10-08T02:33:44;98425.91;;;13.73;55.99
967;BME280;56108;48.730;9.304;2023-10-08T02:35:52;98421.22;;;13.64;56.72
967;BME280;56108;48.730;9.304;2023-10-08T02:38:03;98405.06;;;13.52;57.50
967;BME280;56108;48.730;9.304;2023-10-08T02:40:12;98411.81;;;13.58;57.46
967;BME280;56108;48.730;9.304;2023-10-08T02:42:31;98411.91;;;13.56;58.06
967;BME280;56108;48.730;9.304;2023-10-08T02:44:39;98420.47;;;13.49;57.74
967;BME280;56108;48.730;9.304;2023-10-08T02:46:48;98419.06;;;13.43;58.42
967;BME280;56108;48.730;9.304;2023-10-08T02:48:57;98425.69;;;13.50;58.00
967;BME280;56108;48.730;9.304;2023-10-08T02:51:09;98417.78;;;13.62;58.45
967;BME280;56108;48.730;9.304;2023-10-08T02:53:22;98415.53;;;13.55;58.83
967;BME280;56108;48.730;9.304;2023-10-08T02:55:31;98425.00;;;13.74;56.77
967;BME280;56108;48.730;9.304;2023-10-08T02:57:47;98427.00;;;13.83;56.25
967;BME280;56108;48.730;9.304;2023-10-08T02:59:55;98419.72;;;13.72;57.82
967;BME280;56108;48.730;9.304;2023-10-08T03:02:05;98423.38;;;13.71;57.18
967;BME280;56108;48.730;9.304;2023-10-08T03:04:18;98419.59;;;13.61;58.56
967;BME280;56108;48.730;9.304;2023-10-08T03:06:28;98422.41;;;13.72;57.44
967;BME280;56108;48.730;9.304;2023-10-08T03:08:40;98415.22;;;13.73;57.26
967;BME280;56108;48.730;9.304;2023-10-08T03:10:50;98418.78;;;13.86;55.84
967;BME280;56108;48.730;9.304;2023-10-08T03:13:01;98413.75;;;13.94;56.12
967;BME280;56108;48.730;9.304;2023-10-08T03:15:15;98416.97;;;13.74;57.16
967;BME280;56108;48.730;9.304;2023-10-08T03:17:34;98405.28;;;13.62;57.67
967;BME280;56108;48.730;9.304;2023-10-08T03:19:54;98403.34;;;13.51;58.64
967;BME280;56108;48.730;9.304;2023-10-08T03:22:20;98407.59;;;13.41;57.92
967;BME280;56108;48.730;9.304;2023-10-08T03:24:40;98401.50;;;13.39;58.69
967;BME280;56108;48.730;9.304;2023-10-08T03:26:48;98397.03;;;13.52;56.79
967;BME280;56108;48.730;9.304;2023-10-08T03:29:01;98395.31;;;13.39;59.07
967;BME280;56108;48.730;9.304;2023-10-08T03:31:13;98408.69;;;13.39;57.63
967;BME280;56108;48.730;9.304;2023-10-08T03:33:24;98405.56;;;13.45;57.98
967;BME280;56108;48.730;9.304;2023-10-08T03:35:34;98400.13;;;13.46;57.71
967;BME280;56108;48.730;9.304;2023-10-08T03:37:46;98399.13;;;13.35;58.22
967;BME280;56108;48.730;9.304;2023-10-08T03:39:59;98397.56;;;13.45;59.05
967;BME280;56108;48.730;9.304;2023-10-08T03:42:12;98404.06;;;13.41;58.16
967;BME280;56108;48.730;9.304;2023-10-08T03:44:25;98409.88;;;13.20;59.56
967;BME280;56108;48.730;9.304;2023-10-08T03:46:34;98400.84;;;13.23;59.29
967;BME280;56108;48.730;9.304;2023-10-08T03:48:44;98401.69;;;13.36;59.84
967;BME280;56108;48.730;9.304;2023-10-08T03:50:50;98411.41;;;13.24;60.29
967;BME280;56108;48.730;9.304;2023-10-08T03:53:02;98401.00;;;13.20;60.46
967;BME280;56108;48.730;9.304;2023-10-08T03:55:13;98397.00;;;13.00;62.61
967;BME280;56108;48.730;9.304;2023-10-08T03:57:27;98400.06;;;13.21;63.41
967;BME280;56108;48.730;9.304;2023-10-08T03:59:47;98411.34;;;13.39;59.74
967;BME280;56108;48.730;9.304;2023-10-08T04:02:01;98416.16;;;13.46;60.76
967;BME280;56108;48.730;9.304;2023-10-08T04:04:22;98419.25;;;13.40;59.80
967;BME280;56108;48.730;9.304;2023-10-08T04:06:36;98424.88;;;13.23;60.63
967;BME280;56108;48.730;9.304;2023-10-08T04:08:53;98407.72;;;13.13;62.77
967;BME280;56108;48.730;9.304;2023-10-08T04:11:10;98400.91;;;12.94;65.40
967;BME280;56108;48.730;9.304;2023-10-08T04:13:34;98413.38;;;13.08;62.73
967;BME280;56108;48.730;9.304;2023-10-08T04:15:50;98399.50;;;12.89;65.09
967;BME280;56108;48.730;9.304;2023-10-08T04:17:58;98404.69;;;12.77;66.42
967;BME280;56108;48.730;9.304;2023-10-08T04:20:10;98396.53;;;12.66;66.00
967;BME280;56108;48.730;9.304;2023-10-08T04:22:38;98394.44;;;12.71;65.55
967;BME280;56108;48.730;9.304;2023-10-08T04:24:47;98390.59;;;12.75;64.95
967;BME280;56108;48.730;9.304;2023-10-08T04:26:58;98390.88;;;12.85;63.49
967;BME280;56108;48.730;9.304;2023-10-08T04:29:08;98376.88;;;12.94;65.25
967;BME280;56108;48.730;9.304;2023-10-08T04:31:21;98371.75;;;12.91;67.20
967;BME280;56108;48.730;9.304;2023-10-08T04:33:30;98379.88;;;12.90;64.10
967;BME280;56108;48.730;9.304;2023-10-08T04:35:40;98363.03;;;12.75;65.47
967;BME280;56108;48.730;9.304;2023-10-08T04:37:53;98368.47;;;12.73;64.72
967;BME280;56108;48.730;9.304;2023-10-08T04:40:00;98364.19;;;12.71;65.67
967;BME280;56108;48.730;9.304;2023-10-08T04:42:13;98367.59;;;12.73;64.23
967;BME280;56108;48.730;9.304;2023-10-08T04:44:31;98380.38;;;12.82;63.68
967;BME280;56108;48.730;9.304;2023-10-08T04:46:41;98374.34;;;12.78;65.48
967;BME280;56108;48.730;9.304;2023-10-08T04:48:53;98373.97;;;12.85;64.85
967;BME280;56108;48.730;9.304;2023-10-08T04:51:03;98379.63;;;12.80;65.42
967;BME280;56108;48.730;9.304;2023-10-08T04:53:17;98377.59;;;12.84;66.16
967;BME280;56108;48.730;9.304;2023-10-08T04:55:36;98381.03;;;12.86;65.89
967;BME280;56108;48.730;9.304;2023-10-08T04:57:56;98380.31;;;12.96;65.73
967;BME280;56108;48.730;9.304;2023-10-08T05:00:06;98388.91;;;13.14;64.23
967;BME280;56108;48.730;9.304;2023-10-08T05:02:19;98387.47;;;13.23;64.42
967;BME280;56108;48.730;9.304;2023-10-08T05:04:25;98381.59;;;13.30;66.00
967;BME280;56108;48.730;9.304;2023-10-08T05:06:38;98375.22;;;13.06;66.81
967;BME280;56108;48.730;9.304;2023-10-08T05:09:07;98381.47;;;12.92;67.05
967;BME280;56108;48.730;9.304;2023-10-08T05:11:27;98377.59;;;12.84;69.18
967;BME280;56108;48.730;9.304;2023-10-08T05:13:55;98375.41;;;13.03;67.18
967;BME280;56108;48.730;9.304;2023-10-08T05:16:11;98386.53;;;13.10;67.06
967;BME280;56108;48.730;9.304;2023-10-08T05:18:34;98383.56;;;13.14;67.03
967;BME280;56108;48.730;9.304;2023-10-08T05:20:59;98375.47;;;12.89;70.85
967;BME280;56108;48.730;9.304;2023-10-08T05:23:21;98379.34;;;12.97;69.43
967;BME280;56108;48.730;9.304;2023-10-08T05:25:48;98378.44;;;12.84;70.29
967;BME280;56108;48.730;9.304;2023-10-08T05:28:14;98377.44;;;12.72;73.32
967;BME280;56108;48.730;9.304;2023-10-08T05:30:32;98370.53;;;12.56;79.55
967;BME280;56108;48.730;9.304;2023-10-08T05:32:47;98377.25;;;12.48;76.24
967;BME280;56108;48.730;9.304;2023-10-08T05:35:08;98379.84;;;12.63;74.61
967;BME280;56108;48.730;9.304;2023-10-08T05:37:28;98376.06;;;12.52;77.35
967;BME280;56108;48.730;9.304;2023-10-08T05:39:47;98378.38;;;12.59;74.54
967;BME280;56108;48.730;9.304;2023-10-08T05:42:01;98383.03;;;12.82;73.77
967;BME280;56108;48.730;9.304;2023-10-08T05:44:18;98390.19;;;13.09;69.42
967;BME280;56108;48.730;9.304;2023-10-08T05:46:46;98384.69;;;12.97;71.40
967;BME280;56108;48.730;9.304;2023-10-08T05:49:08;98396.38;;;13.09;69.85
967;BME280;56108;48.730;9.304;2023-10-08T05:51:28;98401.56;;;12.98;69.38
967;BME280;56108;48.730;9.304;2023-10-08T05:53:49;98394.72;;;12.94;70.55
967;BME280;56108;48.730;9.304;2023-10-08T05:56:04;98396.28;;;12.84;71.49
967;BME280;56108;48.730;9.304;2023-10-08T05:58:33;98402.25;;;12.74;72.30
967;BME280;56108;48.730;9.304;2023-10-08T06:00:51;98411.13;;;13.02;69.38
967;BME280;56108;48.730;9.304;2023-10-08T06:03:34;98400.66;;;13.12;70.13
967;BME280;56108;48.730;9.304;2023-10-08T06:05:53;98407.88;;;12.97;71.69
967;BME280;56108;48.730;9.304;2023-10-08T06:08:21;98404.94;;;13.14;71.25
967;BME280;56108;48.730;9.304;2023-10-08T06:10:43;98411.78;;;13.05;71.37
967;BME280;56108;48.730;9.304;2023-10-08T06:13:03;98409.94;;;13.33;68.79
967;BME280;56108;48.730;9.304;2023-10-08T06:15:09;98422.59;;;13.44;67.16
967;BME280;56108;48.730;9.304;2023-10-08T06:17:19;98413.41;;;13.48;68.04
967;BME280;56108;48.730;9.304;2023-10-08T06:19:52;98414.13;;;13.50;68.74
967;BME280;56108;48.730;9.304;2023-10-08T06:22:02;98416.88;;;13.36;68.90
967;BME280;56108;48.730;9.304;2023-10-08T06:24:11;98404.91;;;13.28;71.62
967;BME280;56108;48.730;9.304;2023-10-08T06:26:22;98400.34;;;13.56;69.23
967;BME280;56108;48.730;9.304;2023-10-08T06:28:31;98404.19;;;13.52;69.82
967;BME280;56108;48.730;9.304;2023-10-08T06:30:40;98401.31;;;13.55;69.91
967;BME280;56108;48.730;9.304;2023-10-08T06:32:51;98410.94;;;13.45;70.31
967;BME280;56108;48.730;9.304;2023-10-08T06:35:02;98406.78;;;13.53;69.20
967;BME280;56108;48.730;9.304;2023-10-08T06:37:11;98414.06;;;13.64;68.16
967;BME280;56108;48.730;9.304;2023-10-08T06:39:22;98408.16;;;13.72;69.81
967;BME280;56108;48.730;9.304;2023-10-08T06:41:38;98411.81;;;13.71;69.32
967;BME280;56108;48.730;9.304;2023-10-08T06:43:55;98410.88;;;13.84;68.75
967;BME280;56108;48.730;9.304;2023-10-08T06:46:08;98403.91;;;13.95;67.69
967;BME280;56108;48.730;9.304;2023-10-08T06:48:18;98414.81;;;14.04;67.33
967;BME280;56108;48.730;9.304;2023-10-08T06:50:31;98416.09;;;13.99;67.40
967;BME280;56108;48.730;9.304;2023-10-08T06:52:41;98404.44;;;13.87;69.01
967;BME280;56108;48.730;9.304;2023-10-08T06:54:51;98408.16;;;13.72;71.00
967;BME280;56108;48.730;9.304;2023-10-08T06:56:59;98398.22;;;13.61;72.81
967;BME280;56108;48.730;9.304;2023-10-08T06:59:07;98411.06;;;13.81;71.36
967;BME280;56108;48.730;9.304;2023-10-08T07:01:18;98404.75;;;13.70;73.38
967;BME280;56108;48.730;9.304;2023-10-08T07:03:30;98398.63;;;13.55;74.22
967;BME280;56108;48.730;9.304;2023-10-08T07:05:45;98394.38;;;13.52;75.03
967;BME280;56108;48.730;9.304;2023-10-08T07:07:59;98395.28;;;13.26;74.52
967;BME280;56108;48.730;9.304;2023-10-08T07:10:11;98403.41;;;12.97;79.06
967;BME280;56108;48.730;9.304;2023-10-08T07:12:24;98403.66;;;13.07;78.15
967;BME280;56108;48.730;9.304;2023-10-08T07:14:34;98409.66;;;13.11;77.22
967;BME280;56108;48.730;9.304;2023-10-08T07:16:43;98404.25;;;13.25;78.37
967;BME280;56108;48.730;9.304;2023-10-08T07:18:53;98419.84;;;13.71;73.88
967;BME280;56108;48.730;9.304;2023-10-08T07:21:11;98428.50;;;14.25;69.38
967;BME280;56108;48.730;9.304;2023-10-08T07:23:20;98432.81;;;14.15;70.83
967;BME280;56108;48.730;9.304;2023-10-08T07:25:29;98430.75;;;13.93;73.40
967;BME280;56108;48.730;9.304;2023-10-08T07:27:42;98429.44;;;13.61;74.68
967;BME280;56108;48.730;9.304;2023-10-08T07:29:50;98426.66;;;13.62;76.17
967;BME280;56108;48.730;9.304;2023-10-08T07:32:02;98433.75;;;13.63;75.88
967;BME280;56108;48.730;9.304;2023-10-08T07:34:15;98432.16;;;13.73;74.32
967;BME280;56108;48.730;9.304;2023-10-08T07:36:33;98425.41;;;14.06;75.05
967;BME280;56108;48.730;9.304;2023-10-08T07:38:41;98441.00;;;14.50;72.80
967;BME280;56108;48.730;9.304;2023-10-08T07:40:50;98435.91;;;14.84;68.68
967;BME280;56108;48.730;9.304;2023-10-08T07:42:56;98455.06;;;15.14;64.93
967;BME280;56108;48.730;9.304;2023-10-08T07:45:14;98445.38;;;15.25;66.06
967;BME280;56108;48.730;9.304;2023-10-08T07:47:22;98444.31;;;15.38;65.18
967;BME280;56108;48.730;9.304;2023-10-08T07:49:33;98446.66;;;15.43;64.09
967;BME280;56108;48.730;9.304;2023-10-08T07:51:44;98442.84;;;15.34;65.25
967;BME280;56108;48.730;9.304;2023-10-08T07:53:55;98434.94;;;15.44;67.14
967;BME280;56108;48.730;9.304;2023-10-08T07:56:06;98438.63;;;15.67;66.65
967;BME280;56108;48.730;9.304;2023-10-08T07:58:16;98434.75;;;15.58;67.21
967;BME280;56108;48.730;9.304;2023-10-08T08:00:25;98438.25;;;15.72;67.25
967;BME280;56108;48.730;9.304;2023-10-08T08:02:39;98423.59;;;15.64;78.02
967;BME280;56108;48.730;9.304;2023-10-08T08:04:51;98416.19;;;15.90;78.21
967;BME280;56108;48.730;9.304;2023-10-08T08:07:02;98421.72;;;16.34;74.01
967;BME280;56108;48.730;9.304;2023-10-08T08:09:14;98438.28;;;16.95;66.38
967;BME280;56108;48.730;9.304;2023-10-08T08:11:26;98436.31;;;17.08;64.29
967;BME280;56108;48.730;9.304;2023-10-08T08:13:35;98428.97;;;17.10;63.21
967;BME280;56108;48.730;9.304;2023-10-08T08:15:44;98424.63;;;16.87;63.71
967;BME280;56108;48.730;9.304;2023-10-08T08:17:57;98435.28;;;16.66;63.70
967;BME280;56108;48.730;9.304;2023-10-08T08:20:06;98437.59;;;16.37;65.48
967;BME280;56108;48.730;9.304;2023-10-08T08:22:25;98443.09;;;16.47;68.15
967;BME280;56108;48.730;9.304;2023-10-08T08:24:36;98469.81;;;16.14;69.02
967;BME280;56108;48.730;9.304;2023-10-08T08:26:46;98475.00;;;15.82;70.29
967;BME280;56108;48.730;9.304;2023-10-08T08:29:06;98467.56;;;15.97;71.89
967;BME280;56108;48.730;9.304;2023-10-08T08:31:20;98496.56;;;15.81;65.09
967;BME280;56108;48.730;9.304;2023-10-08T08:33:28;98506.03;;;15.98;62.72
967;BME280;56108;48.730;9.304;2023-10-08T08:35:58;98509.19;;;16.60;61.12
967;BME280;56108;48.730;9.304;2023-10-08T08:38:13;98516.13;;;17.19;60.44
967;BME280;56108;48.730;9.304;2023-10-08T08:40:22;98521.19;;;17.44;59.95
967;BME280;56108;48.730;9.304;2023-10-08T08:42:31;98527.53;;;17.87;60.48
967;BME280;56108;48.730;9.304;2023-10-08T08:44:43;98517.34;;;18.11;59.90
967;BME280;56108;48.730;9.304;2023-10-08T08:47:00;98519.88;;;18.24;59.77
967;BME280;56108;48.730;9.304;2023-10-08T08:49:12;98525.09;;;18.46;58.90
967;BME280;56108;48.730;9.304;2023-10-08T08:51:21;98537.84;;;18.65;57.27
967;BME280;56108;48.730;9.304;2023-10-08T08:53:33;98539.03;;;18.72;57.77
967;BME280;56108;48.730;9.304;2023-10-08T08:55:42;98542.28;;;18.97;56.03
967;BME280;56108;48.730;9.304;2023-10-08T08:57:51;98550.78;;;19.33;55.46
967;BME280;56108;48.730;9.304;2023-10-08T09:00:01;98557.38;;;19.59;56.55
967;BME280;56108;48.730;9.304;2023-10-08T09:02:13;98565.34;;;19.70;53.85
967;BME280;56108;48.730;9.304;2023-10-08T09:04:28;98563.66;;;19.89;55.68
967;BME280;56108;48.730;9.304;2023-10-08T09:06:37;98559.94;;;20.28;55.48
967;BME280;56108;48.730;9.304;2023-10-08T09:08:48;98556.66;;;20.54;54.15
967;BME280;56108;48.730;9.304;2023-10-08T09:11:01;98561.69;;;20.86;53.54
967;BME280;56108;48.730;9.304;2023-10-08T09:13:09;98562.09;;;20.91;52.07
967;BME280;56108;48.730;9.304;2023-10-08T09:15:17;98561.47;;;21.07;51.30
967;BME280;56108;48.730;9.304;2023-10-08T09:17:28;98578.06;;;21.31;49.24
967;BME280;56108;48.730;9.304;2023-10-08T09:19:38;98576.44;;;21.39;49.42
967;BME280;56108;48.730;9.304;2023-10-08T09:22:00;98588.84;;;21.86;48.73
967;BME280;56108;48.730;9.304;2023-10-08T09:24:12;98591.59;;;22.40;46.82
967;BME280;56108;48.730;9.304;2023-10-08T09:26:26;98607.91;;;22.66;44.62
967;BME280;56108;48.730;9.304;2023-10-08T09:28:35;98611.50;;;23.27;43.60
967;BME280;56108;48.730;9.304;2023-10-08T09:30:44;98604.19;;;23.19;43.95
967;BME280;56108;48.730;9.304;2023-10-08T09:32:53;98612.59;;;22.82;42.73
967;BME280;56108;48.730;9.304;2023-10-08T09:35:01;98605.22;;;22.74;44.58
967;BME280;56108;48.730;9.304;2023-10-08T09:37:10;98588.09;;;22.74;46.41
967;BME280;56108;48.730;9.304;2023-10-08T09:39:23;98603.75;;;22.36;44.42
967;BME280;56108;48.730;9.304;2023-10-08T09:41:33;98593.16;;;22.25;46.11
967;BME280;56108;48.730;9.304;2023-10-08T09:43:40;98594.81;;;22.44;45.11
967;BME280;56108;48.730;9.304;2023-10-08T09:45:53;98587.06;;;22.92;46.26
967;BME280;56108;48.730;9.304;2023-10-08T09:48:07;98598.59;;;22.95;45.06
967;BME280;56108;48.730;9.304;2023-10-08T09:50:22;98612.41;;;22.83;43.00
967;BME280;56108;48.730;9.304;2023-10-08T09:52:38;98603.28;;;22.40;46.02
967;BME280;56108;48.730;9.304;2023-10-08T09:54:59;98595.69;;;22.08;46.02
967;BME280;56108;48.730;9.304;2023-10-08T09:57:09;98588.75;;;21.96;45.90
967;BME280;56108;48.730;9.304;2023-10-08T09:59:18;98595.41;;;22.02;45.08
967;BME280;56108;48.730;9.304;2023-10-08T10:01:28;98593.28;;;21.60;44.32
967;BME280;56108;48.730;9.304;2023-10-08T10:03:37;98594.47;;;21.75;44.13
967;BME280;56108;48.730;9.304;2023-10-08T10:05:43;98594.81;;;21.72;43.81
967;BME280;56108;48.730;9.304;2023-10-08T10:07:54;98586.91;;;21.97;43.26
967;BME280;56108;48.730;9.304;2023-10-08T10:10:09;98595.00;;;22.24;44.02
967;BME280;56108;48.730;9.304;2023-10-08T10:12:33;98583.41;;;22.14;44.99
967;BME280;56108;48.730;9.304;2023-10-08T10:14:41;98583.13;;;21.72;47.42
967;BME280;56108;48.730;9.304;2023-10-08T10:17:08;98588.19;;;21.57;45.20
967;BME280;56108;48.730;9.304;2023-10-08T10:19:32;98591.44;;;21.60;46.95
967;BME280;56108;48.730;9.304;2023-10-08T10:21:41;98593.47;;;21.31;46.99
967;BME280;56108;48.730;9.304;2023-10-08T10:23:50;98589.53;;;21.43;48.94
967;BME280;56108;48.730;9.304;2023-10-08T10:26:03;98595.81;;;21.44;48.09
967;BME280;56108;48.730;9.304;2023-10-08T10:28:32;98600.09;;;21.46;47.40
967;BME280;56108;48.730;9.304;2023-10-08T10:30:43;98600.34;;;21.71;47.78
967;BME280;56108;48.730;9.304;2023-10-08T10:32:52;98612.06;;;22.07;46.65
967;BME280;56108;48.730;9.304;2023-10-08T10:35:06;98596.34;;;21.75;47.92
967;BME280;56108;48.730;9.304;2023-10-08T10:37:19;98602.16;;;21.80;47.64
967;BME280;56108;48.730;9.304;2023-10-08T10:39:31;98597.72;;;21.33;46.89
967;BME280;56108;48.730;9.304;2023-10-08T10:41:48;98594.50;;;21.10;47.48
967;BME280;56108;48.730;9.304;2023-10-08T10:44:01;98591.59;;;21.31;47.81
967;BME280;56108;48.730;9.304;2023-10-08T10:46:13;98592.53;;;21.40;47.65
967;BME280;56108;48.730;9.304;2023-10-08T10:48:37;98578.72;;;21.43;48.19
967;BME280;56108;48.730;9.304;2023-10-08T10:50:45;98587.06;;;21.50;47.11
967;BME280;56108;48.730;9.304;2023-10-08T10:53:14;98591.13;;;21.63;47.11
967;BME280;56108;48.730;9.304;2023-10-08T10:55:23;98596.59;;;21.26;48.54
967;BME280;56108;48.730;9.304;2023-10-08T10:57:40;98594.50;;;21.10;49.87
967;BME280;56108;48.730;9.304;2023-10-08T10:59:46;98597.28;;;21.28;49.52
967;BME280;56108;48.730;9.304;2023-10-08T11:02:00;98595.31;;;21.58;51.22
967;BME280;56108;48.730;9.304;2023-10-08T11:04:13;98595.53;;;21.47;49.32
967;BME280;56108;48.730;9.304;2023-10-08T11:06:25;98586.81;;;21.71;51.34
967;BME280;56108;48.730;9.304;2023-10-08T11:08:34;98575.97;;;21.71;51.64
967;BME280;56108;48.730;9.304;2023-10-08T11:10:43;98579.91;;;21.76;50.82
967;BME280;56108;48.730;9.304;2023-10-08T11:12:57;98564.91;;;22.00;52.51
967;BME280;56108;48.730;9.304;2023-10-08T11:15:07;98562.00;;;22.11;53.80
967;BME280;56108;48.730;9.304;2023-10-08T11:17:23;98564.47;;;22.22;52.08
967;BME280;56108;48.730;9.304;2023-10-08T11:19:33;98562.13;;;22.27;51.17
967;BME280;56108;48.730;9.304;2023-10-08T11:21:51;98564.16;;;22.25;49.84
967;BME280;56108;48.730;9.304;2023-10-08T11:23:59;98572.34;;;22.33;50.02
967;BME280;56108;48.730;9.304;2023-10-08T11:26:15;98547.06;;;22.51;51.88
967;BME280;56108;48.730;9.304;2023-10-08T11:28:26;98548.34;;;22.64;53.11
967;BME280;56108;48.730;9.304;2023-10-08T11:30:36;98577.78;;;22.33;46.53
967;BME280;56108;48.730;9.304;2023-10-08T11:32:47;98593.97;;;22.43;46.68
967;BME280;56108;48.730;9.304;2023-10-08T11:34:56;98570.31;;;22.79;46.87
967;BME280;56108;48.730;9.304;2023-10-08T11:37:05;98564.81;;;22.89;48.03
967;BME280;56108;48.730;9.304;2023-10-08T11:39:24;98570.66;;;23.02;45.81
967;BME280;56108;48.730;9.304;2023-10-08T11:41:36;98561.22;;;23.14;48.13
967;BME280;56108;48.730;9.304;2023-10-08T11:43:58;98555.03;;;23.38;47.72
967;BME280;56108;48.730;9.304;2023-10-08T11:46:08;98552.69;;;23.52;48.47
967;BME280;56108;48.730;9.304;2023-10-08T11:48:19;98550.34;;;23.57;48.49
967;BME280;56108;48.730;9.304;2023-10-08T11:50:33;98542.28;;;23.89;48.25
967;BME280;56108;48.730;9.304;2023-10-08T11:52:43;98549.06;;;23.85;47.05
967;BME280;56108;48.730;9.304;2023-10-08T11:54:51;98545.44;;;23.60;45.67
967;BME280;56108;48.730;9.304;2023-10-08T11:57:01;98546.50;;;23.67;45.81
967;BME280;56108;48.730;9.304;2023-10-08T11:59:16;98553.69;;;23.42;44.72
967;BME280;56108;48.730;9.304;2023-10-08T12:01:25;98553.38;;;23.03;45.29
967;BME280;56108;48.730;9.304;2023-10-08T12:03:34;98527.03;;;23.46;48.06
967;BME280;56108;48.730;9.304;2023-10-08T12:05:44;98525.97;;;23.81;48.38